Aviation Digital Data Service (ADDS)

Output produced by METARs form (0326 UTC 21 September 2017)
found at http://www.aviationweather.gov/adds/metars/
 
EHKD 210325Z AUTO 19008KT 9999 NCD 12/11 Q1018 BLU
TAF EHKD 210042Z 2101/2113 20010KT 9999 SCT020 BKN050 
     PROB30 
     TEMPO 2101/2105 SCT015 BKN030
       
EHDL 210255Z AUTO 17003KT 100V180 9999 OVC060 11/09 Q1020 BLU
EHGG 210255Z AUTO 20006KT 8000 NSC 12/11 Q1019
TAF EHGG 202226Z 2100/2206 21007KT 9999 BKN045 
     PROB40 2103/2107 4000 BR MIFG 
     BECMG 2122/2201 6000 
     PROB30 
     TEMPO 2202/2206 1800 BCFG
       
EHEH 210255Z AUTO 17004KT 140V200 9999 NCD 10/09 Q1020 BLU
TAF COR EHEH 210054Z 2100/2206 18006KT CAVOK 
     BECMG 2100/2103 4000 BR 
     PROB30 
     TEMPO 2103/2107 2000 BR 
     BECMG 2107/2109 CAVOK 
     PROB30 
     TEMPO 2200/2206 4000 BR
       
EHGR 210255Z AUTO 18005KT 9999 NCD 10/08 Q1019 BLU
EHLW 210255Z AUTO 20007KT 160V220 7000 BR FEW360 13/12 Q1018 WHT
EHBK 210255Z AUTO 19005KT 9999 NSC 08/07 Q1020
TAF EHBK 202225Z 2100/2206 21007KT CAVOK
       
EHRD 210255Z AUTO 18008KT 150V210 9999 NCD 12/10 Q1019 NOSIG
TAF EHRD 202230Z 2100/2206 19006KT 9999 SCT030 
     PROB30 2102/2107 6000
       
EHAM 210255Z 16005KT 140V200 CAVOK 13/12 Q1019 NOSIG
TAF EHAM 202230Z 2100/2206 18007KT 9999 SCT040 
     PROB30 2102/2106 7000 
     BECMG 2115/2118 14006KT
       
EHVK 210255Z AUTO 19003KT 120V210 9999 FEW057 09/08 Q1020 BLU
TAF EHVK 210050Z 2101/2113 20007KT CAVOK 
     BECMG 2101/2103 4000 BR 
     PROB30 
     TEMPO 2103/2107 2000 BR 
     BECMG 2107/2109 CAVOK
       
EHWO 210255Z AUTO 17004KT 140V210 9999 NCD 12/09 Q1019 BLU